createdAt,value
2023-02-02T00:00:22.779Z,78.04
2023-02-02T00:02:49.324Z,78.18
2023-02-02T00:05:15.908Z,78.01
2023-02-02T00:07:42.423Z,79.08
2023-02-02T00:10:09.488Z,79.58
2023-02-02T00:12:35.931Z,79.02
2023-02-02T00:15:02.409Z,79.11
2023-02-02T00:17:28.893Z,79.89
2023-02-02T00:19:55.791Z,80.19
2023-02-02T00:22:22.388Z,80.18
2023-02-02T00:24:48.825Z,79.54
2023-02-02T00:27:15.344Z,79.39
2023-02-02T00:29:41.812Z,79.84
2023-02-02T00:32:08.255Z,80.36
2023-02-02T00:34:34.726Z,79.46
2023-02-02T00:37:01.342Z,79.78
2023-02-02T00:39:27.925Z,80.15
2023-02-02T00:41:55.058Z,80.51
2023-02-02T00:44:40.609Z,80.20
2023-02-02T00:47:07.151Z,81.11
2023-02-02T00:49:33.701Z,80.63
2023-02-02T00:52:00.559Z,80.58
2023-02-02T00:54:27.764Z,80.93
2023-02-02T00:56:54.357Z,80.79
2023-02-02T00:59:20.915Z,80.93
2023-02-02T01:01:47.657Z,80.65
2023-02-02T01:04:14.181Z,80.57
2023-02-02T01:06:40.728Z,79.91
2023-02-02T01:09:07.229Z,80.36
2023-02-02T01:11:33.742Z,80.70
2023-02-02T01:14:00.228Z,80.83
2023-02-02T01:16:26.767Z,80.92
2023-02-02T01:18:53.345Z,81.08
2023-02-02T01:21:20.545Z,81.01
2023-02-02T01:23:47.809Z,81.69
2023-02-02T01:26:15.200Z,82.12
2023-02-02T01:28:42.056Z,82.22
2023-02-02T01:31:16.807Z,82.15
2023-02-02T01:33:45.748Z,81.95
2023-02-02T01:36:20.700Z,82.45
2023-02-02T01:38:47.815Z,82.32
2023-02-02T01:41:22.042Z,82.87
2023-02-02T01:43:49.275Z,82.75
2023-02-02T01:46:18.548Z,82.82
2023-02-02T01:48:52.325Z,83.03
2023-02-02T01:51:23.172Z,83.42
2023-02-02T01:53:52.709Z,82.72
2023-02-02T01:56:27.093Z,83.14
2023-02-02T01:58:53.741Z,83.38
2023-02-02T02:01:20.578Z,83.17
2023-02-02T02:03:47.195Z,83.70
2023-02-02T02:06:17.265Z,83.30
2023-02-02T02:08:52.452Z,83.84
2023-02-02T02:11:19.917Z,84.33
2023-02-02T02:14:05.345Z,84.14
2023-02-02T02:16:47.280Z,84.70
2023-02-02T02:20:09.796Z,84.84
2023-02-02T02:23:10.036Z,84.32
2023-02-02T02:26:13.323Z,84.37
2023-02-02T02:29:08.432Z,84.53
2023-02-02T02:31:34.954Z,84.58
2023-02-02T02:34:19.321Z,84.24
2023-02-02T02:36:56.944Z,83.88
2023-02-02T02:39:49.628Z,83.75
2023-02-02T02:42:22.461Z,84.39
2023-02-02T02:44:50.564Z,84.19
2023-02-02T02:47:19.415Z,85.14
2023-02-02T02:49:48.284Z,83.71
2023-02-02T02:52:15.534Z,83.69
2023-02-02T02:54:51.647Z,84.21
2023-02-02T02:57:36.424Z,84.29
2023-02-02T03:00:36.691Z,84.60
2023-02-02T03:03:21.805Z,84.68
2023-02-02T03:06:06.103Z,85.09
2023-02-02T03:08:32.495Z,85.39
2023-02-02T03:11:02.418Z,85.23
2023-02-02T03:13:30.496Z,85.50
2023-02-02T03:15:57.011Z,86.02
2023-02-02T03:18:27.646Z,85.93
2023-02-02T03:20:54.175Z,85.51
2023-02-02T03:23:21.064Z,85.57
2023-02-02T03:25:47.959Z,85.80
2023-02-02T03:28:16.413Z,84.69
2023-02-02T03:30:44.421Z,85.06
2023-02-02T03:33:13.115Z,83.99
2023-02-02T03:35:39.572Z,84.89
2023-02-02T03:38:06.060Z,84.80
2023-02-02T03:40:32.662Z,84.33
2023-02-02T03:42:59.111Z,84.85
2023-02-02T03:45:29.009Z,85.32
2023-02-02T03:47:55.550Z,84.90
2023-02-02T03:50:22.209Z,83.90
2023-02-02T03:52:48.660Z,84.19
2023-02-02T03:55:15.226Z,84.09
2023-02-02T03:57:41.709Z,84.69
2023-02-02T04:00:10.162Z,84.81
2023-02-02T04:02:36.730Z,84.17
2023-02-02T04:05:03.282Z,84.83
2023-02-02T04:07:29.800Z,84.67
2023-02-02T04:09:56.329Z,84.33
2023-02-02T04:12:22.839Z,83.65
2023-02-02T04:14:49.275Z,84.40
2023-02-02T04:17:15.716Z,84.54
2023-02-02T04:19:42.333Z,84.04
2023-02-02T04:22:08.841Z,84.52
2023-02-02T04:24:37.892Z,83.58
2023-02-02T04:27:04.541Z,83.74
2023-02-02T04:29:31.110Z,83.13
2023-02-02T04:31:57.920Z,83.56
2023-02-02T04:34:24.458Z,84.23
2023-02-02T04:36:50.996Z,83.92
2023-02-02T04:39:17.484Z,83.25
2023-02-02T04:41:43.935Z,83.18
2023-02-02T04:44:15.697Z,82.17
2023-02-02T04:46:43.200Z,82.95
2023-02-02T04:49:11.492Z,82.34
2023-02-02T04:51:39.093Z,82.41
2023-02-02T04:54:06.401Z,82.45
2023-02-02T04:56:33.657Z,81.49
2023-02-02T04:59:00.388Z,82.32
2023-02-02T05:01:27.303Z,82.64
2023-02-02T05:03:53.852Z,82.71
2023-02-02T05:06:20.472Z,83.33
2023-02-02T05:08:48.822Z,83.88
2023-02-02T05:11:20.986Z,83.37
2023-02-02T05:13:49.402Z,83.12
2023-02-02T05:16:16.170Z,83.18
2023-02-02T05:18:43.402Z,82.95
2023-02-02T05:21:10.152Z,81.95
2023-02-02T05:23:36.649Z,81.90
2023-02-02T05:26:03.218Z,82.56
2023-02-02T05:28:29.808Z,82.67
2023-02-02T05:30:56.351Z,82.67
2023-02-02T05:33:23.115Z,81.65
2023-02-02T05:35:50.101Z,82.43
2023-02-02T05:38:16.770Z,82.55
2023-02-02T05:40:43.295Z,82.89
2023-02-02T05:43:09.996Z,82.70
2023-02-02T05:45:36.509Z,82.32
2023-02-02T05:48:03.055Z,82.55
2023-02-02T05:50:29.501Z,83.00
2023-02-02T05:52:55.987Z,82.90
2023-02-02T05:55:22.745Z,82.76
2023-02-02T05:57:49.340Z,82.43
2023-02-02T06:00:16.152Z,81.54
2023-02-02T06:02:42.699Z,82.83
2023-02-02T06:05:09.535Z,82.53
2023-02-02T06:07:36.063Z,83.13
2023-02-02T06:10:02.707Z,82.75
2023-02-02T06:12:29.198Z,82.43
2023-02-02T06:14:56.101Z,82.49
2023-02-02T06:17:22.605Z,83.02
2023-02-02T06:19:49.115Z,82.70
2023-02-02T06:22:15.665Z,82.97
2023-02-02T06:24:42.142Z,83.44
2023-02-02T06:27:08.651Z,83.54
2023-02-02T06:29:35.149Z,83.72
2023-02-02T06:32:01.738Z,82.77
2023-02-02T06:34:28.211Z,83.04
2023-02-02T06:36:54.719Z,82.27
2023-02-02T06:39:21.174Z,83.55
2023-02-02T06:41:48.352Z,83.65
2023-02-02T06:44:15.471Z,83.86
2023-02-02T06:46:42.570Z,83.79
2023-02-02T06:49:09.153Z,83.66
2023-02-02T06:51:35.668Z,83.64
2023-02-02T06:54:03.838Z,83.78
2023-02-02T06:56:30.759Z,83.48
2023-02-02T06:58:57.253Z,83.67
2023-02-02T07:01:23.813Z,83.09
2023-02-02T07:03:51.218Z,83.83
2023-02-02T07:06:21.149Z,83.30
2023-02-02T07:08:59.356Z,82.50
2023-02-02T07:11:30.204Z,82.82
2023-02-02T07:13:57.072Z,83.15
2023-02-02T07:16:23.597Z,83.55
2023-02-02T07:18:50.159Z,83.34
2023-02-02T07:21:19.739Z,82.71
2023-02-02T07:23:46.918Z,83.05
2023-02-02T07:26:14.421Z,84.27
2023-02-02T07:28:41.413Z,82.61
2023-02-02T07:31:17.167Z,82.29
2023-02-02T07:33:45.062Z,82.30
2023-02-02T07:36:13.452Z,81.86
2023-02-02T07:38:39.999Z,82.26
2023-02-02T07:41:06.502Z,81.72
2023-02-02T07:43:33.059Z,82.38
2023-02-02T07:46:02.847Z,82.06
2023-02-02T07:48:30.892Z,81.95
2023-02-02T07:51:06.123Z,81.93
2023-02-02T07:53:32.920Z,81.03
2023-02-02T07:56:10.546Z,81.76
2023-02-02T07:58:37.452Z,81.48
2023-02-02T08:01:05.605Z,82.13
2023-02-02T08:03:32.611Z,81.88
2023-02-02T08:05:59.489Z,81.73
2023-02-02T08:08:26.275Z,81.77
2023-02-02T08:10:54.391Z,81.58
2023-02-02T08:13:20.946Z,81.92
2023-02-02T08:15:47.564Z,83.04
2023-02-02T08:18:14.088Z,83.53
2023-02-02T08:20:40.564Z,85.54
2023-02-02T08:23:13.464Z,86.60
2023-02-02T08:25:40.199Z,87.04
2023-02-02T08:28:06.750Z,88.21
2023-02-02T08:30:35.410Z,89.18
2023-02-02T08:33:01.904Z,89.11
2023-02-02T08:35:28.533Z,88.48
2023-02-02T08:37:54.970Z,89.25
2023-02-02T08:40:21.458Z,89.79
2023-02-02T08:42:52.595Z,88.84
2023-02-02T08:46:03.094Z,88.77
2023-02-02T08:48:12.108Z,88.28
2023-02-02T08:50:39.436Z,88.35
2023-02-02T08:53:05.900Z,87.72
2023-02-02T08:55:32.352Z,87.57
2023-02-02T08:57:58.812Z,86.88
2023-02-02T09:00:25.601Z,87.55
2023-02-02T09:02:52.078Z,88.09
2023-02-02T09:05:18.892Z,86.42
2023-02-02T09:07:47.139Z,87.03
2023-02-02T09:10:13.599Z,87.09
2023-02-02T09:12:40.067Z,86.02
2023-02-02T09:15:06.938Z,86.41
2023-02-02T09:17:33.402Z,86.96
2023-02-02T09:19:59.910Z,86.76
2023-02-02T09:22:28.582Z,87.19
2023-02-02T09:24:55.332Z,86.63
2023-02-02T09:27:22.103Z,87.13
2023-02-02T09:29:48.878Z,86.44
2023-02-02T09:32:15.567Z,86.16
2023-02-02T09:34:42.031Z,87.41
2023-02-02T09:37:08.613Z,86.49
2023-02-02T09:39:35.194Z,86.33
2023-02-02T09:42:10.489Z,86.51
2023-02-02T09:44:55.347Z,86.89
2023-02-02T09:47:30.959Z,85.81
2023-02-02T09:50:22.577Z,84.89
2023-02-02T09:52:49.055Z,84.69
2023-02-02T09:55:28.047Z,84.90
2023-02-02T09:58:01.611Z,85.15
2023-02-02T10:00:33.395Z,85.13
2023-02-02T10:03:10.909Z,85.04
2023-02-02T10:05:48.889Z,85.56
2023-02-02T10:08:34.675Z,85.09
2023-02-02T10:11:15.236Z,85.37
2023-02-02T10:13:44.004Z,84.28
2023-02-02T10:16:17.796Z,85.27
2023-02-02T10:18:44.681Z,85.13
2023-02-02T10:21:18.084Z,84.40
2023-02-02T10:23:45.691Z,84.29
2023-02-02T10:26:46.918Z,84.08
2023-02-02T10:29:23.680Z,84.28
2023-02-02T10:32:23.252Z,83.50
2023-02-02T10:35:16.550Z,82.23
2023-02-02T10:38:00.922Z,82.38
2023-02-02T10:40:36.590Z,82.36
2023-02-02T10:43:48.752Z,82.01
2023-02-02T10:46:27.666Z,82.68
2023-02-02T10:49:17.232Z,81.62
2023-02-02T10:51:58.738Z,82.78
2023-02-02T10:54:55.732Z,84.25
2023-02-02T10:57:56.132Z,83.82
2023-02-02T11:00:28.616Z,83.74
2023-02-02T11:02:56.099Z,82.83
2023-02-02T11:05:47.170Z,81.92
2023-02-02T11:08:14.882Z,82.52
2023-02-02T11:10:43.588Z,81.53
2023-02-02T11:13:15.814Z,80.60
2023-02-02T11:15:42.729Z,80.91
2023-02-02T11:18:35.352Z,79.03
2023-02-02T11:21:02.114Z,79.28
2023-02-02T11:23:28.769Z,79.67
2023-02-02T11:26:01.499Z,81.04
2023-02-02T11:28:34.429Z,80.34
2023-02-02T11:31:01.785Z,80.24
2023-02-02T11:33:37.444Z,80.78
2023-02-02T11:36:19.786Z,80.32
2023-02-02T11:38:46.411Z,80.95
2023-02-02T11:41:15.397Z,80.76
2023-02-02T11:43:53.460Z,81.18
2023-02-02T11:46:24.700Z,79.65
2023-02-02T11:49:03.223Z,79.91
2023-02-02T11:51:31.268Z,79.48
2023-02-02T11:54:17.851Z,79.88
2023-02-02T11:56:51.861Z,81.33
2023-02-02T11:59:40.970Z,80.31
2023-02-02T12:02:19.569Z,79.50
2023-02-02T12:04:51.901Z,79.75
2023-02-02T12:07:24.283Z,80.23
2023-02-02T12:09:51.040Z,79.69
2023-02-02T12:12:42.442Z,78.83
2023-02-02T12:15:23.878Z,78.35
2023-02-02T12:17:55.497Z,78.12
2023-02-02T12:20:40.000Z,77.41
2023-02-02T12:23:32.589Z,76.80
2023-02-02T12:26:24.023Z,77.30
2023-02-02T12:29:07.021Z,77.63
2023-02-02T12:31:39.548Z,77.50
2023-02-02T12:34:19.378Z,77.54
2023-02-02T12:37:04.978Z,76.90
2023-02-02T12:39:34.657Z,76.62
2023-02-02T12:42:13.173Z,77.20
2023-02-02T12:45:10.293Z,77.46
2023-02-02T12:48:10.025Z,76.93
2023-02-02T12:50:45.040Z,77.93
2023-02-02T12:53:38.616Z,77.18
2023-02-02T12:56:17.571Z,77.84
2023-02-02T12:59:07.218Z,78.48
2023-02-02T13:02:24.562Z,79.65
2023-02-02T13:05:15.206Z,79.84
2023-02-02T13:07:47.563Z,78.56
2023-02-02T13:10:35.523Z,79.28
2023-02-02T13:13:12.392Z,79.02
2023-02-02T13:15:42.830Z,79.17
2023-02-02T13:18:37.025Z,79.71
2023-02-02T13:21:10.826Z,79.77
2023-02-02T13:23:56.571Z,79.32
2023-02-02T13:26:38.911Z,79.60
2023-02-02T13:29:11.562Z,80.33
2023-02-02T13:31:50.451Z,80.09
2023-02-02T13:34:22.821Z,79.70
2023-02-02T13:37:10.975Z,80.28
2023-02-02T13:39:44.201Z,79.64
2023-02-02T13:42:27.378Z,80.12
2023-02-02T13:45:01.572Z,78.91
2023-02-02T13:47:40.926Z,79.35
2023-02-02T13:50:14.981Z,78.39
2023-02-02T13:53:04.795Z,78.10
2023-02-02T13:55:58.904Z,77.40
2023-02-02T13:58:31.315Z,78.08
2023-02-02T14:01:04.494Z,77.86
2023-02-02T14:03:39.959Z,78.09
2023-02-02T14:06:19.002Z,77.69
2023-02-02T14:09:05.044Z,77.46
2023-02-02T14:11:38.952Z,77.40
2023-02-02T14:14:33.140Z,77.32
2023-02-02T14:17:07.307Z,77.52
2023-02-02T14:19:33.660Z,76.43
2023-02-02T14:22:08.888Z,77.31
2023-02-02T14:24:35.244Z,76.34
2023-02-02T14:27:01.798Z,75.97
2023-02-02T14:29:36.007Z,76.77
2023-02-02T14:32:34.664Z,76.49
2023-02-02T14:35:01.134Z,76.88
2023-02-02T14:37:27.516Z,76.46
2023-02-02T14:40:06.185Z,76.43
2023-02-02T14:43:09.528Z,76.40
2023-02-02T14:45:39.587Z,76.07
2023-02-02T14:48:05.983Z,76.60
2023-02-02T14:50:38.412Z,75.81
2023-02-02T14:53:17.592Z,76.47
2023-02-02T14:56:00.581Z,75.88
2023-02-02T14:58:45.875Z,75.86
2023-02-02T15:01:25.231Z,75.77
2023-02-02T15:03:56.211Z,76.41
2023-02-02T15:06:22.556Z,76.22
2023-02-02T15:09:20.139Z,75.91
2023-02-02T15:12:00.885Z,76.53
2023-02-02T15:15:02.365Z,75.99
2023-02-02T15:17:34.835Z,76.08
2023-02-02T15:20:13.497Z,76.23
2023-02-02T15:22:49.128Z,75.95
2023-02-02T15:25:24.355Z,75.08
2023-02-02T15:28:00.141Z,75.30
2023-02-02T15:30:29.975Z,75.18
2023-02-02T15:32:56.851Z,75.28
2023-02-02T15:35:30.070Z,75.99
2023-02-02T15:38:00.749Z,75.47
2023-02-02T15:40:30.018Z,74.03
2023-02-02T15:42:59.003Z,74.10
2023-02-02T15:45:28.970Z,73.96
2023-02-02T15:47:57.813Z,73.67
2023-02-02T15:50:25.087Z,73.60
2023-02-02T15:52:53.607Z,73.63
2023-02-02T15:55:25.216Z,73.35
2023-02-02T15:57:55.182Z,73.43
2023-02-02T16:00:34.273Z,73.44
2023-02-02T16:03:06.290Z,74.07
2023-02-02T16:05:35.412Z,73.14
2023-02-02T16:08:06.765Z,74.03
2023-02-02T16:10:34.495Z,73.23
2023-02-02T16:13:01.900Z,73.19
2023-02-02T16:15:30.713Z,74.05
2023-02-02T16:18:13.481Z,73.52
2023-02-02T16:20:41.961Z,74.04
2023-02-02T16:23:15.366Z,73.60
2023-02-02T16:25:48.313Z,73.39
2023-02-02T16:28:18.222Z,73.21
2023-02-02T16:30:45.596Z,73.77
2023-02-02T16:33:35.356Z,74.50
2023-02-02T16:36:04.488Z,74.51
2023-02-02T16:38:35.498Z,74.37
2023-02-02T16:41:23.354Z,73.71
2023-02-02T16:43:49.864Z,73.87
2023-02-02T16:46:37.908Z,74.37
2023-02-02T16:49:05.735Z,73.92
2023-02-02T16:51:34.043Z,74.14
2023-02-02T16:54:06.649Z,74.37
2023-02-02T16:56:36.013Z,74.79
2023-02-02T16:59:14.923Z,73.54
2023-02-02T17:01:54.559Z,74.04
2023-02-02T17:04:34.142Z,74.56
2023-02-02T17:07:15.922Z,73.93
2023-02-02T17:09:45.145Z,73.44
2023-02-02T17:12:34.949Z,74.00
2023-02-02T17:15:28.748Z,74.80
2023-02-02T17:17:56.296Z,73.88
2023-02-02T17:20:23.315Z,74.34
2023-02-02T17:22:54.438Z,74.72
2023-02-02T17:25:32.335Z,75.11
2023-02-02T17:28:00.326Z,75.31
2023-02-02T17:30:28.634Z,75.10
2023-02-02T17:32:55.076Z,74.63
2023-02-02T17:35:25.411Z,75.35
2023-02-02T17:37:53.175Z,75.09
2023-02-02T17:40:22.141Z,74.24
2023-02-02T17:42:52.851Z,74.91
2023-02-02T17:45:39.549Z,74.39
2023-02-02T17:48:06.528Z,74.29
2023-02-02T17:50:33.920Z,74.98
2023-02-02T17:53:00.321Z,73.78
2023-02-02T17:55:33.395Z,74.80
2023-02-02T17:58:00.026Z,74.01
2023-02-02T18:00:29.341Z,74.24
2023-02-02T18:03:19.950Z,74.34
2023-02-02T18:05:46.594Z,75.10
2023-02-02T18:08:13.311Z,74.31
2023-02-02T18:10:41.111Z,74.06
2023-02-02T18:13:08.404Z,74.01
2023-02-02T18:15:35.127Z,74.88
2023-02-02T18:18:02.030Z,74.05
2023-02-02T18:20:28.495Z,74.11
2023-02-02T18:22:54.920Z,74.55
2023-02-02T18:25:21.588Z,74.20
2023-02-02T18:27:50.550Z,75.42
2023-02-02T18:30:17.114Z,74.91
2023-02-02T18:32:43.722Z,74.26
2023-02-02T18:35:12.291Z,74.22
2023-02-02T18:37:40.033Z,74.98
2023-02-02T18:40:08.043Z,74.67
2023-02-02T18:42:35.423Z,75.01
2023-02-02T18:45:03.166Z,75.20
2023-02-02T18:47:29.728Z,74.75
2023-02-02T18:49:56.140Z,75.38
2023-02-02T18:52:22.725Z,75.85
2023-02-02T18:54:49.775Z,76.83
2023-02-02T18:57:16.975Z,77.23
2023-02-02T18:59:43.867Z,77.18
2023-02-02T19:02:25.771Z,77.54
2023-02-02T19:05:10.770Z,76.97
2023-02-02T19:07:55.052Z,77.87
2023-02-02T19:10:23.342Z,78.97
2023-02-02T19:12:55.765Z,81.61
2023-02-02T19:15:22.874Z,83.21
2023-02-02T19:17:52.364Z,83.23
2023-02-02T19:20:28.839Z,83.53
2023-02-02T19:23:01.686Z,83.38
2023-02-02T19:25:28.746Z,84.10
2023-02-02T19:27:55.377Z,84.60
2023-02-02T19:30:23.032Z,84.42
2023-02-02T19:32:49.960Z,84.35
2023-02-02T19:35:22.322Z,84.65
2023-02-02T19:37:52.574Z,84.49
2023-02-02T19:40:23.668Z,84.64
2023-02-02T19:42:56.539Z,85.01
2023-02-02T19:45:29.586Z,85.16
2023-02-02T19:47:58.112Z,85.27
2023-02-02T19:50:29.289Z,85.02
2023-02-02T19:52:56.048Z,85.03
2023-02-02T19:55:28.162Z,85.08
2023-02-02T19:58:01.668Z,84.43
2023-02-02T20:00:29.409Z,85.21
2023-02-02T20:03:04.938Z,84.51
2023-02-02T20:05:38.442Z,85.42
2023-02-02T20:08:14.083Z,85.67
2023-02-02T20:10:43.531Z,85.14
2023-02-02T20:13:20.594Z,85.07
2023-02-02T20:15:48.551Z,85.80
2023-02-02T20:18:27.814Z,86.07
2023-02-02T20:20:56.946Z,85.50
2023-02-02T20:23:41.613Z,85.57
2023-02-02T20:26:22.065Z,85.76
2023-02-02T20:28:49.021Z,85.98
2023-02-02T20:31:20.045Z,85.96
2023-02-02T20:33:50.627Z,86.57
2023-02-02T20:36:39.599Z,86.45
2023-02-02T20:39:15.055Z,86.63
2023-02-02T20:41:43.793Z,86.18
2023-02-02T20:44:10.940Z,86.76
2023-02-02T20:46:37.401Z,85.69
2023-02-02T20:49:05.587Z,85.78
2023-02-02T20:51:32.406Z,86.06
2023-02-02T20:53:58.953Z,86.43
2023-02-02T20:56:25.425Z,86.67
2023-02-02T20:58:51.860Z,86.62
2023-02-02T21:01:19.310Z,86.19
2023-02-02T21:03:45.776Z,86.73
2023-02-02T21:06:12.190Z,85.84
2023-02-02T21:08:38.593Z,86.40
2023-02-02T21:11:05.116Z,86.09
2023-02-02T21:13:31.529Z,87.22
2023-02-02T21:15:57.938Z,86.81
2023-02-02T21:18:24.369Z,86.49
2023-02-02T21:20:50.867Z,86.75
2023-02-02T21:23:18.119Z,86.54
2023-02-02T21:25:44.586Z,86.12
2023-02-02T21:28:10.976Z,85.71
2023-02-02T21:30:37.501Z,86.23
2023-02-02T21:33:05.478Z,86.09
2023-02-02T21:35:33.050Z,85.71
2023-02-02T21:38:06.969Z,86.83
2023-02-02T21:40:34.631Z,86.46
2023-02-02T21:43:11.300Z,86.94
2023-02-02T21:45:38.451Z,86.23
2023-02-02T21:48:29.293Z,87.13
2023-02-02T21:50:56.301Z,87.24
2023-02-02T21:53:24.064Z,86.71
2023-02-02T21:55:54.435Z,86.67
2023-02-02T21:58:29.564Z,86.94
2023-02-02T22:01:13.983Z,86.37
2023-02-02T22:03:46.342Z,87.50
2023-02-02T22:06:25.081Z,86.65
2023-02-02T22:08:53.694Z,86.66
2023-02-02T22:11:29.487Z,86.48
2023-02-02T22:14:17.148Z,85.34
2023-02-02T22:16:48.522Z,84.15
2023-02-02T22:19:32.831Z,84.59
2023-02-02T22:22:25.438Z,84.08
2023-02-02T22:25:17.286Z,83.71
2023-02-02T22:27:59.856Z,83.64
2023-02-02T22:30:38.763Z,83.81
2023-02-02T22:33:06.925Z,83.11
2023-02-02T22:35:34.113Z,83.04
2023-02-02T22:38:01.383Z,82.71
2023-02-02T22:40:28.817Z,81.37
2023-02-02T22:42:57.622Z,82.21
2023-02-02T22:45:24.908Z,82.21
2023-02-02T22:47:51.753Z,81.33
2023-02-02T22:50:23.496Z,82.33
2023-02-02T22:52:50.841Z,81.80
2023-02-02T22:55:18.583Z,82.03
2023-02-02T22:57:45.016Z,82.87
2023-02-02T23:00:21.089Z,82.97
2023-02-02T23:02:47.772Z,82.54
2023-02-02T23:05:16.357Z,83.07
2023-02-02T23:07:44.109Z,83.18
2023-02-02T23:10:13.199Z,82.40
2023-02-02T23:12:40.647Z,82.38
2023-02-02T23:15:08.070Z,81.96
2023-02-02T23:17:37.517Z,81.23
2023-02-02T23:20:06.566Z,82.48
2023-02-02T23:22:33.027Z,82.91
2023-02-02T23:24:59.552Z,83.46
2023-02-02T23:27:26.304Z,82.46
2023-02-02T23:29:52.818Z,82.73
2023-02-02T23:32:19.299Z,83.78
2023-02-02T23:34:45.728Z,83.95
2023-02-02T23:37:12.236Z,84.32
2023-02-02T23:39:38.631Z,83.75
2023-02-02T23:42:05.178Z,83.93
2023-02-02T23:44:31.570Z,83.56
2023-02-02T23:46:58.783Z,83.74
2023-02-02T23:49:25.323Z,83.64
2023-02-02T23:51:52.200Z,82.37
2023-02-02T23:54:18.601Z,82.76
2023-02-02T23:56:45.148Z,82.01
2023-02-02T23:59:11.559Z,82.04
